Terminal Aerodrome Forecast
Issued by NWS

Home | Current Version | Previous Version | Text Only | Print | Product List | Glossary On
Versions: 1 2 3 4 5 6 7 8 9 10 11 12 13 14 15 16 17 18 19 20 21 22 23 24
000
FTUS41 KPBZ 202101 AAA
TAFAGC
TAF AMD
KAGC 202101Z 2021/2118 19006KT P6SM SCT020 OVC050
     FM210600 00000KT 3SM BR OVC008
     FM211200 15004KT P6SM BKN015
     FM211600 18005KT P6SM BKN025=

USA.gov is the U.S. government's official web portal to all federal, state and local government web resources and services.